sensor_id;sensor_type;location;lat;lon;timestamp;pressure;altitude;pressure_sealevel;temperature;humidity
22653;BME280;11493;43.344;26.226;2024-02-15T00:01:06;99816.22;;;6.93;98.53
22653;BME280;11493;43.344;26.226;2024-02-15T00:03:33;99814.31;;;6.94;98.16
22653;BME280;11493;43.344;26.226;2024-02-15T00:06:01;99817.34;;;6.82;98.35
22653;BME280;11493;43.344;26.226;2024-02-15T00:08:29;99818.44;;;6.86;98.51
22653;BME280;11493;43.344;26.226;2024-02-15T00:10:56;99809.41;;;6.86;98.64
22653;BME280;11493;43.344;26.226;2024-02-15T00:13:24;99816.81;;;6.85;98.27
22653;BME280;11493;43.344;26.226;2024-02-15T00:15:51;99830.47;;;6.90;98.68
22653;BME280;11493;43.344;26.226;2024-02-15T00:18:19;99820.91;;;6.83;98.23
22653;BME280;11493;43.344;26.226;2024-02-15T00:20:46;99818.19;;;6.73;99.42
22653;BME280;11493;43.344;26.226;2024-02-15T00:23:13;99816.59;;;6.67;100.00
22653;BME280;11493;43.344;26.226;2024-02-15T00:25:43;99828.06;;;6.69;100.00
22653;BME280;11493;43.344;26.226;2024-02-15T00:28:11;99818.47;;;6.76;100.00
22653;BME280;11493;43.344;26.226;2024-02-15T00:30:40;99811.09;;;6.77;100.00
22653;BME280;11493;43.344;26.226;2024-02-15T00:33:07;99821.47;;;6.75;100.00
22653;BME280;11493;43.344;26.226;2024-02-15T00:35:35;99818.75;;;6.70;100.00
22653;BME280;11493;43.344;26.226;2024-02-15T00:38:03;99826.44;;;6.68;100.00
22653;BME280;11493;43.344;26.226;2024-02-15T00:40:30;99820.69;;;6.69;100.00
22653;BME280;11493;43.344;26.226;2024-02-15T00:42:57;99821.75;;;6.78;100.00
22653;BME280;11493;43.344;26.226;2024-02-15T00:45:24;99820.94;;;6.78;100.00
22653;BME280;11493;43.344;26.226;2024-02-15T00:47:52;99820.94;;;6.73;100.00
22653;BME280;11493;43.344;26.226;2024-02-15T00:50:20;99819.63;;;6.65;100.00
22653;BME280;11493;43.344;26.226;2024-02-15T00:52:47;99825.38;;;6.64;100.00
22653;BME280;11493;43.344;26.226;2024-02-15T00:55:14;99826.75;;;6.61;100.00
22653;BME280;11493;43.344;26.226;2024-02-15T00:57:41;99812.25;;;6.50;100.00
22653;BME280;11493;43.344;26.226;2024-02-15T01:00:09;99820.47;;;6.50;100.00
22653;BME280;11493;43.344;26.226;2024-02-15T01:02:36;99821.56;;;6.54;100.00
22653;BME280;11493;43.344;26.226;2024-02-15T01:05:04;99815.00;;;6.50;100.00
22653;BME280;11493;43.344;26.226;2024-02-15T01:07:31;99816.38;;;6.48;100.00
22653;BME280;11493;43.344;26.226;2024-02-15T01:09:58;99813.63;;;6.43;100.00
22653;BME280;11493;43.344;26.226;2024-02-15T01:12:25;99811.47;;;6.40;100.00
22653;BME280;11493;43.344;26.226;2024-02-15T01:14:52;99805.19;;;6.34;100.00
22653;BME280;11493;43.344;26.226;2024-02-15T01:17:19;99807.91;;;6.29;100.00
22653;BME280;11493;43.344;26.226;2024-02-15T01:19:46;99824.84;;;6.31;100.00
22653;BME280;11493;43.344;26.226;2024-02-15T01:22:13;99810.91;;;6.28;100.00
22653;BME280;11493;43.344;26.226;2024-02-15T01:24:40;99811.75;;;6.28;100.00
22653;BME280;11493;43.344;26.226;2024-02-15T01:27:07;99809.56;;;6.30;100.00
22653;BME280;11493;43.344;26.226;2024-02-15T01:29:35;99816.38;;;6.28;100.00
22653;BME280;11493;43.344;26.226;2024-02-15T01:32:03;99814.47;;;6.28;100.00
22653;BME280;11493;43.344;26.226;2024-02-15T01:34:30;99822.13;;;6.31;100.00
22653;BME280;11493;43.344;26.226;2024-02-15T01:36:57;99817.47;;;6.32;100.00
22653;BME280;11493;43.344;26.226;2024-02-15T01:39:24;99816.38;;;6.38;100.00
22653;BME280;11493;43.344;26.226;2024-02-15T01:41:51;99815.56;;;6.37;100.00
22653;BME280;11493;43.344;26.226;2024-02-15T01:44:22;99817.47;;;6.42;100.00
22653;BME280;11493;43.344;26.226;2024-02-15T01:46:51;99795.34;;;6.33;100.00
22653;BME280;11493;43.344;26.226;2024-02-15T01:49:21;99826.75;;;6.46;100.00
22653;BME280;11493;43.344;26.226;2024-02-15T01:51:51;99816.09;;;6.34;100.00
22653;BME280;11493;43.344;26.226;2024-02-15T01:54:20;99812.28;;;6.30;100.00
22653;BME280;11493;43.344;26.226;2024-02-15T01:56:47;99824.56;;;6.43;99.40
22653;BME280;11493;43.344;26.226;2024-02-15T01:59:15;99820.47;;;6.40;98.18
22653;BME280;11493;43.344;26.226;2024-02-15T02:01:44;99824.59;;;6.33;97.89
22653;BME280;11493;43.344;26.226;2024-02-15T02:04:12;99823.22;;;6.30;97.35
22653;BME280;11493;43.344;26.226;2024-02-15T02:06:39;99822.13;;;6.21;98.28
22653;BME280;11493;43.344;26.226;2024-02-15T02:09:10;99823.50;;;6.13;97.94
22653;BME280;11493;43.344;26.226;2024-02-15T02:11:41;99828.41;;;6.06;98.77
22653;BME280;11493;43.344;26.226;2024-02-15T02:14:08;99827.59;;;6.01;98.42
22653;BME280;11493;43.344;26.226;2024-02-15T02:16:35;99822.69;;;6.08;98.08
22653;BME280;11493;43.344;26.226;2024-02-15T02:19:02;99825.44;;;5.92;98.21
22653;BME280;11493;43.344;26.226;2024-02-15T02:21:36;99834.16;;;5.89;98.82
22653;BME280;11493;43.344;26.226;2024-02-15T02:24:03;99817.44;;;5.76;99.71
22653;BME280;11493;43.344;26.226;2024-02-15T02:26:35;99832.47;;;5.73;100.00
22653;BME280;11493;43.344;26.226;2024-02-15T02:29:02;99835.47;;;5.67;100.00
22653;BME280;11493;43.344;26.226;2024-02-15T02:31:34;99830.28;;;5.65;100.00
22653;BME280;11493;43.344;26.226;2024-02-15T02:34:01;99825.34;;;5.62;100.00
22653;BME280;11493;43.344;26.226;2024-02-15T02:36:29;99829.69;;;5.53;100.00
22653;BME280;11493;43.344;26.226;2024-02-15T02:38:56;99841.16;;;5.55;100.00
22653;BME280;11493;43.344;26.226;2024-02-15T02:41:28;99836.50;;;5.45;100.00
22653;BME280;11493;43.344;26.226;2024-02-15T02:43:56;99843.03;;;5.44;100.00
22653;BME280;11493;43.344;26.226;2024-02-15T02:46:24;99839.19;;;5.35;100.00
22653;BME280;11493;43.344;26.226;2024-02-15T02:48:51;99835.34;;;5.26;100.00
22653;BME280;11493;43.344;26.226;2024-02-15T02:51:18;99830.41;;;5.13;100.00
22653;BME280;11493;43.344;26.226;2024-02-15T02:53:46;99844.03;;;5.08;100.00
22653;BME280;11493;43.344;26.226;2024-02-15T02:56:13;99839.34;;;5.03;100.00
22653;BME280;11493;43.344;26.226;2024-02-15T02:58:40;99837.78;;;5.12;100.00
22653;BME280;11493;43.344;26.226;2024-02-15T03:01:10;99833.63;;;5.00;100.00
22653;BME280;11493;43.344;26.226;2024-02-15T03:03:38;99845.59;;;4.93;100.00
22653;BME280;11493;43.344;26.226;2024-02-15T03:06:06;99829.47;;;4.87;100.00
22653;BME280;11493;43.344;26.226;2024-02-15T03:08:34;99833.81;;;4.83;100.00
22653;BME280;11493;43.344;26.226;2024-02-15T03:11:01;99828.28;;;4.73;100.00
22653;BME280;11493;43.344;26.226;2024-02-15T03:13:29;99836.97;;;4.65;100.00
22653;BME280;11493;43.344;26.226;2024-02-15T03:15:56;99835.28;;;4.58;100.00
22653;BME280;11493;43.344;26.226;2024-02-15T03:18:23;99841.78;;;4.52;100.00
22653;BME280;11493;43.344;26.226;2024-02-15T03:20:51;99833.31;;;4.49;100.00
22653;BME280;11493;43.344;26.226;2024-02-15T03:23:18;99836.03;;;4.44;100.00
22653;BME280;11493;43.344;26.226;2024-02-15T03:25:45;99826.50;;;4.41;100.00
22653;BME280;11493;43.344;26.226;2024-02-15T03:28:13;99843.97;;;4.45;100.00
22653;BME280;11493;43.344;26.226;2024-02-15T03:30:42;99834.09;;;4.39;100.00
22653;BME280;11493;43.344;26.226;2024-02-15T03:33:09;99837.59;;;4.35;100.00
22653;BME280;11493;43.344;26.226;2024-02-15T03:35:37;99841.34;;;4.23;100.00
22653;BME280;11493;43.344;26.226;2024-02-15T03:38:05;99833.44;;;4.22;100.00
22653;BME280;11493;43.344;26.226;2024-02-15T03:40:33;99831.47;;;4.17;100.00
22653;BME280;11493;43.344;26.226;2024-02-15T03:43:00;99842.59;;;4.11;100.00
22653;BME280;11493;43.344;26.226;2024-02-15T03:45:28;99848.03;;;4.11;100.00
22653;BME280;11493;43.344;26.226;2024-02-15T03:47:55;99851.75;;;4.00;100.00
22653;BME280;11493;43.344;26.226;2024-02-15T03:50:25;99839.44;;;3.92;100.00
22653;BME280;11493;43.344;26.226;2024-02-15T03:52:52;99849.19;;;3.88;100.00
22653;BME280;11493;43.344;26.226;2024-02-15T03:55:19;99846.41;;;3.83;100.00
22653;BME280;11493;43.344;26.226;2024-02-15T03:57:49;99838.97;;;3.73;100.00
22653;BME280;11493;43.344;26.226;2024-02-15T04:00:16;99831.88;;;3.67;100.00
22653;BME280;11493;43.344;26.226;2024-02-15T04:02:49;99845.47;;;3.67;100.00
22653;BME280;11493;43.344;26.226;2024-02-15T04:05:17;99839.47;;;3.65;100.00
22653;BME280;11493;43.344;26.226;2024-02-15T04:07:46;99836.09;;;3.53;100.00
22653;BME280;11493;43.344;26.226;2024-02-15T04:10:13;99840.44;;;3.54;100.00
22653;BME280;11493;43.344;26.226;2024-02-15T04:12:41;99834.19;;;3.53;100.00
22653;BME280;11493;43.344;26.226;2024-02-15T04:15:11;99835.50;;;3.51;100.00
22653;BME280;11493;43.344;26.226;2024-02-15T04:17:44;99843.69;;;3.51;100.00
22653;BME280;11493;43.344;26.226;2024-02-15T04:20:12;99842.75;;;3.40;100.00
22653;BME280;11493;43.344;26.226;2024-02-15T04:22:42;99836.38;;;3.29;100.00
22653;BME280;11493;43.344;26.226;2024-02-15T04:25:10;99841.50;;;3.26;100.00
22653;BME280;11493;43.344;26.226;2024-02-15T04:27:45;99846.09;;;3.25;100.00
22653;BME280;11493;43.344;26.226;2024-02-15T04:30:16;99848.25;;;3.23;100.00
22653;BME280;11493;43.344;26.226;2024-02-15T04:32:44;99863.94;;;3.16;100.00
22653;BME280;11493;43.344;26.226;2024-02-15T04:35:12;99861.41;;;3.10;100.00
22653;BME280;11493;43.344;26.226;2024-02-15T04:37:41;99860.53;;;3.04;100.00
22653;BME280;11493;43.344;26.226;2024-02-15T04:40:08;99859.38;;;3.00;100.00
22653;BME280;11493;43.344;26.226;2024-02-15T04:42:36;99863.75;;;3.01;100.00
22653;BME280;11493;43.344;26.226;2024-02-15T04:45:08;99864.78;;;2.95;100.00
22653;BME280;11493;43.344;26.226;2024-02-15T04:47:38;99863.13;;;2.94;100.00
22653;BME280;11493;43.344;26.226;2024-02-15T04:50:07;99870.78;;;2.97;100.00
22653;BME280;11493;43.344;26.226;2024-02-15T04:52:36;99874.63;;;3.01;100.00
22653;BME280;11493;43.344;26.226;2024-02-15T04:55:04;99878.47;;;3.05;100.00
22653;BME280;11493;43.344;26.226;2024-02-15T04:57:34;99877.97;;;3.08;100.00
22653;BME280;11493;43.344;26.226;2024-02-15T05:00:04;99879.63;;;3.09;100.00
22653;BME280;11493;43.344;26.226;2024-02-15T05:02:38;99879.13;;;3.12;100.00
22653;BME280;11493;43.344;26.226;2024-02-15T05:05:09;99891.63;;;3.13;100.00
22653;BME280;11493;43.344;26.226;2024-02-15T05:07:36;99884.22;;;3.09;100.00
22653;BME280;11493;43.344;26.226;2024-02-15T05:10:07;99882.41;;;3.14;100.00
22653;BME280;11493;43.344;26.226;2024-02-15T05:12:39;99887.34;;;3.17;100.00
22653;BME280;11493;43.344;26.226;2024-02-15T05:15:07;99887.97;;;3.24;100.00
22653;BME280;11493;43.344;26.226;2024-02-15T05:17:39;99896.19;;;3.29;100.00
22653;BME280;11493;43.344;26.226;2024-02-15T05:20:11;99895.69;;;3.33;100.00
22653;BME280;11493;43.344;26.226;2024-02-15T05:22:41;99891.13;;;3.38;100.00
22653;BME280;11493;43.344;26.226;2024-02-15T05:25:17;99905.19;;;3.52;100.00
22653;BME280;11493;43.344;26.226;2024-02-15T05:27:53;99905.81;;;3.59;100.00
22653;BME280;11493;43.344;26.226;2024-02-15T05:30:22;99913.41;;;3.57;100.00
22653;BME280;11493;43.344;26.226;2024-02-15T05:32:51;99909.41;;;3.65;100.00
22653;BME280;11493;43.344;26.226;2024-02-15T05:35:20;99904.84;;;3.70;100.00
22653;BME280;11493;43.344;26.226;2024-02-15T05:37:47;99917.50;;;3.86;100.00
22653;BME280;11493;43.344;26.226;2024-02-15T05:40:15;99914.31;;;3.94;100.00
22653;BME280;11493;43.344;26.226;2024-02-15T05:42:43;99917.66;;;4.02;100.00
22653;BME280;11493;43.344;26.226;2024-02-15T05:47:52;99927.88;;;4.16;100.00
22653;BME280;11493;43.344;26.226;2024-02-15T05:50:20;99935.84;;;4.23;100.00
22653;BME280;11493;43.344;26.226;2024-02-15T05:52:48;99935.06;;;4.27;100.00
22653;BME280;11493;43.344;26.226;2024-02-15T05:55:15;99949.56;;;4.33;100.00
22653;BME280;11493;43.344;26.226;2024-02-15T05:57:45;99945.25;;;4.37;100.00
22653;BME280;11493;43.344;26.226;2024-02-15T06:00:13;99952.94;;;4.45;100.00
22653;BME280;11493;43.344;26.226;2024-02-15T06:02:49;99955.13;;;4.48;100.00
22653;BME280;11493;43.344;26.226;2024-02-15T06:05:18;99956.56;;;4.56;100.00
22653;BME280;11493;43.344;26.226;2024-02-15T06:07:45;99948.59;;;4.49;100.00
22653;BME280;11493;43.344;26.226;2024-02-15T06:10:14;99959.03;;;4.57;100.00
22653;BME280;11493;43.344;26.226;2024-02-15T06:12:42;99962.38;;;4.70;100.00
22653;BME280;11493;43.344;26.226;2024-02-15T06:15:09;99957.50;;;4.72;100.00
22653;BME280;11493;43.344;26.226;2024-02-15T06:17:43;99968.19;;;4.78;100.00
22653;BME280;11493;43.344;26.226;2024-02-15T06:20:15;99955.91;;;4.76;100.00
22653;BME280;11493;43.344;26.226;2024-02-15T06:22:46;99959.22;;;4.83;100.00
22653;BME280;11493;43.344;26.226;2024-02-15T06:25:13;99962.50;;;4.85;100.00
22653;BME280;11493;43.344;26.226;2024-02-15T06:27:42;99954.59;;;4.83;100.00
22653;BME280;11493;43.344;26.226;2024-02-15T06:30:11;99955.41;;;4.84;100.00
22653;BME280;11493;43.344;26.226;2024-02-15T06:32:57;99974.84;;;4.92;100.00
22653;BME280;11493;43.344;26.226;2024-02-15T06:35:43;99970.78;;;5.00;100.00
22653;BME280;11493;43.344;26.226;2024-02-15T06:38:29;99966.16;;;5.01;100.00
22653;BME280;11493;43.344;26.226;2024-02-15T06:41:15;99974.16;;;5.12;100.00
22653;BME280;11493;43.344;26.226;2024-02-15T06:43:42;99965.19;;;5.17;100.00
22653;BME280;11493;43.344;26.226;2024-02-15T06:46:10;99957.56;;;5.24;100.00
22653;BME280;11493;43.344;26.226;2024-02-15T06:48:37;99964.16;;;5.33;100.00
22653;BME280;11493;43.344;26.226;2024-02-15T06:51:05;99978.41;;;5.45;100.00
22653;BME280;11493;43.344;26.226;2024-02-15T06:53:33;99971.59;;;5.48;100.00
22653;BME280;11493;43.344;26.226;2024-02-15T06:56:00;99973.28;;;5.59;100.00
22653;BME280;11493;43.344;26.226;2024-02-15T06:58:28;99974.97;;;5.65;100.00
22653;BME280;11493;43.344;26.226;2024-02-15T07:00:56;99966.53;;;5.72;100.00
22653;BME280;11493;43.344;26.226;2024-02-15T07:03:23;99968.47;;;5.76;100.00
22653;BME280;11493;43.344;26.226;2024-02-15T07:05:50;99977.25;;;5.88;100.00
22653;BME280;11493;43.344;26.226;2024-02-15T07:08:18;99982.19;;;5.91;100.00
22653;BME280;11493;43.344;26.226;2024-02-15T07:10:45;99974.56;;;5.93;100.00
22653;BME280;11493;43.344;26.226;2024-02-15T07:13:12;99975.13;;;6.06;100.00
22653;BME280;11493;43.344;26.226;2024-02-15T07:15:39;99982.25;;;6.17;100.00
22653;BME280;11493;43.344;26.226;2024-02-15T07:18:06;99978.44;;;6.33;100.00
22653;BME280;11493;43.344;26.226;2024-02-15T07:20:34;99982.56;;;6.41;100.00
22653;BME280;11493;43.344;26.226;2024-02-15T07:23:01;99982.31;;;6.52;100.00
22653;BME280;11493;43.344;26.226;2024-02-15T07:25:28;99977.09;;;6.51;100.00
22653;BME280;11493;43.344;26.226;2024-02-15T07:27:56;99975.22;;;6.67;100.00
22653;BME280;11493;43.344;26.226;2024-02-15T07:30:23;99975.19;;;6.82;100.00
22653;BME280;11493;43.344;26.226;2024-02-15T07:32:52;99981.75;;;6.86;100.00
22653;BME280;11493;43.344;26.226;2024-02-15T07:35:19;99986.94;;;6.92;100.00
22653;BME280;11493;43.344;26.226;2024-02-15T07:37:54;99986.13;;;7.02;100.00
22653;BME280;11493;43.344;26.226;2024-02-15T07:40:22;99985.00;;;7.08;100.00
22653;BME280;11493;43.344;26.226;2024-02-15T07:42:50;99966.13;;;7.12;100.00
22653;BME280;11493;43.344;26.226;2024-02-15T07:45:19;99972.41;;;7.17;99.13
22653;BME280;11493;43.344;26.226;2024-02-15T07:47:46;99976.78;;;7.23;96.70
22653;BME280;11493;43.344;26.226;2024-02-15T07:50:18;99976.47;;;7.40;94.77
22653;BME280;11493;43.344;26.226;2024-02-15T07:52:48;99978.63;;;7.43;91.35
22653;BME280;11493;43.344;26.226;2024-02-15T07:55:15;99984.91;;;7.44;91.18
22653;BME280;11493;43.344;26.226;2024-02-15T07:57:42;99980.59;;;7.38;90.30
22653;BME280;11493;43.344;26.226;2024-02-15T08:00:09;99964.16;;;7.33;90.34
22653;BME280;11493;43.344;26.226;2024-02-15T08:02:38;99977.25;;;7.46;90.78
22653;BME280;11493;43.344;26.226;2024-02-15T08:05:09;99981.06;;;7.55;87.83
22653;BME280;11493;43.344;26.226;2024-02-15T08:07:46;99982.69;;;7.56;87.66
22653;BME280;11493;43.344;26.226;2024-02-15T08:10:16;99983.78;;;7.55;87.34
22653;BME280;11493;43.344;26.226;2024-02-15T08:12:45;99989.00;;;7.56;87.44
22653;BME280;11493;43.344;26.226;2024-02-15T08:15:12;99973.38;;;7.57;87.73
22653;BME280;11493;43.344;26.226;2024-02-15T08:17:44;99980.75;;;7.62;88.02
22653;BME280;11493;43.344;26.226;2024-02-15T08:20:15;99981.50;;;7.82;88.62
22653;BME280;11493;43.344;26.226;2024-02-15T08:22:44;99965.09;;;7.77;88.83
22653;BME280;11493;43.344;26.226;2024-02-15T08:25:12;99971.56;;;7.97;88.83
22653;BME280;11493;43.344;26.226;2024-02-15T08:27:40;99977.84;;;8.02;88.63
22653;BME280;11493;43.344;26.226;2024-02-15T08:30:12;99961.94;;;8.04;86.94
22653;BME280;11493;43.344;26.226;2024-02-15T08:32:41;99968.09;;;8.25;85.37
22653;BME280;11493;43.344;26.226;2024-02-15T08:35:13;99980.16;;;8.24;85.33
22653;BME280;11493;43.344;26.226;2024-02-15T08:37:40;99966.72;;;8.28;85.45
22653;BME280;11493;43.344;26.226;2024-02-15T08:40:09;99974.66;;;8.34;86.09
22653;BME280;11493;43.344;26.226;2024-02-15T08:42:42;99971.91;;;8.29;86.87
22653;BME280;11493;43.344;26.226;2024-02-15T08:45:10;99966.16;;;8.36;87.93
22653;BME280;11493;43.344;26.226;2024-02-15T08:47:39;99974.63;;;8.39;88.09
22653;BME280;11493;43.344;26.226;2024-02-15T08:50:07;99975.97;;;8.42;89.46
22653;BME280;11493;43.344;26.226;2024-02-15T08:52:38;99977.84;;;8.51;90.28
22653;BME280;11493;43.344;26.226;2024-02-15T08:55:09;99974.81;;;8.53;91.42
22653;BME280;11493;43.344;26.226;2024-02-15T08:57:37;99975.25;;;8.65;92.47
22653;BME280;11493;43.344;26.226;2024-02-15T09:00:08;99978.09;;;8.55;92.16
22653;BME280;11493;43.344;26.226;2024-02-15T09:02:44;99969.84;;;8.55;91.56
22653;BME280;11493;43.344;26.226;2024-02-15T09:05:13;99978.94;;;8.50;90.62
22653;BME280;11493;43.344;26.226;2024-02-15T09:07:45;99974.53;;;8.54;90.94
22653;BME280;11493;43.344;26.226;2024-02-15T09:10:15;99979.44;;;8.57;90.90
22653;BME280;11493;43.344;26.226;2024-02-15T09:12:45;99975.59;;;8.59;90.11
22653;BME280;11493;43.344;26.226;2024-02-15T09:15:15;99972.66;;;8.45;87.94
22653;BME280;11493;43.344;26.226;2024-02-15T09:17:43;99963.88;;;8.48;88.65
22653;BME280;11493;43.344;26.226;2024-02-15T09:20:14;99962.22;;;8.47;90.01
22653;BME280;11493;43.344;26.226;2024-02-15T09:22:51;99960.28;;;8.52;89.70
22653;BME280;11493;43.344;26.226;2024-02-15T09:25:19;99959.13;;;8.59;87.68
22653;BME280;11493;43.344;26.226;2024-02-15T09:27:46;99959.78;;;8.45;87.93
22653;BME280;11493;43.344;26.226;2024-02-15T09:30:14;99956.09;;;8.60;88.88
22653;BME280;11493;43.344;26.226;2024-02-15T09:32:42;99948.94;;;8.64;90.44
22653;BME280;11493;43.344;26.226;2024-02-15T09:35:12;99947.47;;;8.77;91.66
22653;BME280;11493;43.344;26.226;2024-02-15T09:37:47;99949.72;;;8.70;91.12
22653;BME280;11493;43.344;26.226;2024-02-15T09:40:17;99941.81;;;8.92;90.26
22653;BME280;11493;43.344;26.226;2024-02-15T09:42:46;99943.94;;;9.00;90.12
22653;BME280;11493;43.344;26.226;2024-02-15T09:45:14;99936.69;;;9.09;90.89
22653;BME280;11493;43.344;26.226;2024-02-15T09:47:45;99939.34;;;9.19;90.26
22653;BME280;11493;43.344;26.226;2024-02-15T09:50:14;99934.59;;;9.01;89.33
22653;BME280;11493;43.344;26.226;2024-02-15T09:52:53;99925.91;;;9.18;91.81
22653;BME280;11493;43.344;26.226;2024-02-15T09:55:24;99935.31;;;9.36;90.36
22653;BME280;11493;43.344;26.226;2024-02-15T09:57:52;99930.09;;;9.10;89.11
22653;BME280;11493;43.344;26.226;2024-02-15T10:00:19;99928.47;;;9.09;90.06
22653;BME280;11493;43.344;26.226;2024-02-15T10:02:50;99924.84;;;9.14;90.30
22653;BME280;11493;43.344;26.226;2024-02-15T10:05:17;99931.00;;;9.30;90.50
22653;BME280;11493;43.344;26.226;2024-02-15T10:07:45;99922.13;;;9.38;89.70
22653;BME280;11493;43.344;26.226;2024-02-15T10:10:21;99926.31;;;9.54;89.75
22653;BME280;11493;43.344;26.226;2024-02-15T10:12:49;99922.00;;;9.24;90.48
22653;BME280;11493;43.344;26.226;2024-02-15T10:18:09;99919.88;;;9.64;88.57
22653;BME280;11493;43.344;26.226;2024-02-15T10:20:39;99895.59;;;9.71;89.30
22653;BME280;11493;43.344;26.226;2024-02-15T10:25:37;99909.94;;;9.86;87.53
22653;BME280;11493;43.344;26.226;2024-02-15T10:28:05;99905.28;;;10.06;87.85
22653;BME280;11493;43.344;26.226;2024-02-15T10:30:35;99901.78;;;10.00;88.92
22653;BME280;11493;43.344;26.226;2024-02-15T10:33:04;99889.75;;;10.15;86.77
22653;BME280;11493;43.344;26.226;2024-02-15T10:35:32;99899.25;;;9.85;86.30
22653;BME280;11493;43.344;26.226;2024-02-15T10:38:07;99903.84;;;9.89;87.98
22653;BME280;11493;43.344;26.226;2024-02-15T10:40:35;99893.69;;;9.90;87.41
22653;BME280;11493;43.344;26.226;2024-02-15T10:43:04;99899.84;;;10.01;86.90
22653;BME280;11493;43.344;26.226;2024-02-15T10:45:32;99897.91;;;10.01;86.22
22653;BME280;11493;43.344;26.226;2024-02-15T10:48:00;99874.44;;;9.90;85.34
22653;BME280;11493;43.344;26.226;2024-02-15T10:50:27;99880.31;;;9.83;85.82
22653;BME280;11493;43.344;26.226;2024-02-15T10:52:56;99896.06;;;10.34;86.50
22653;BME280;11493;43.344;26.226;2024-02-15T10:58:06;99880.69;;;10.33;86.51
22653;BME280;11493;43.344;26.226;2024-02-15T11:00:34;99884.91;;;10.07;87.00
22653;BME280;11493;43.344;26.226;2024-02-15T11:03:04;99866.84;;;10.38;87.71
22653;BME280;11493;43.344;26.226;2024-02-15T11:05:34;99869.41;;;10.48;85.32
22653;BME280;11493;43.344;26.226;2024-02-15T11:08:05;99871.31;;;10.34;85.08
22653;BME280;11493;43.344;26.226;2024-02-15T11:10:37;99863.88;;;10.35;86.13
22653;BME280;11493;43.344;26.226;2024-02-15T11:13:06;99861.16;;;10.48;85.26
22653;BME280;11493;43.344;26.226;2024-02-15T11:18:03;99862.47;;;10.37;85.47
22653;BME280;11493;43.344;26.226;2024-02-15T11:23:00;99855.78;;;10.57;84.11
22653;BME280;11493;43.344;26.226;2024-02-15T11:25:35;99864.94;;;10.52;85.01
22653;BME280;11493;43.344;26.226;2024-02-15T11:30:54;99856.00;;;10.09;84.82
22653;BME280;11493;43.344;26.226;2024-02-15T11:33:30;99858.16;;;9.94;85.56
22653;BME280;11493;43.344;26.226;2024-02-15T11:36:13;99851.09;;;10.06;85.55
22653;BME280;11493;43.344;26.226;2024-02-15T11:38:41;99851.09;;;10.06;84.95
22653;BME280;11493;43.344;26.226;2024-02-15T11:41:11;99850.00;;;9.88;86.23
22653;BME280;11493;43.344;26.226;2024-02-15T11:46:26;99847.16;;;9.94;86.85
22653;BME280;11493;43.344;26.226;2024-02-15T11:48:58;99840.31;;;10.10;86.80
22653;BME280;11493;43.344;26.226;2024-02-15T11:51:34;99837.19;;;10.35;87.77
22653;BME280;11493;43.344;26.226;2024-02-15T11:54:10;99839.66;;;10.37;87.01
22653;BME280;11493;43.344;26.226;2024-02-15T11:59:16;99832.91;;;10.29;83.55
22653;BME280;11493;43.344;26.226;2024-02-15T12:01:56;99841.06;;;10.34;82.92
22653;BME280;11493;43.344;26.226;2024-02-15T12:04:46;99834.75;;;10.34;83.34
22653;BME280;11493;43.344;26.226;2024-02-15T12:07:32;99836.75;;;10.28;83.78
22653;BME280;11493;43.344;26.226;2024-02-15T12:10:18;99830.97;;;10.30;83.01
22653;BME280;11493;43.344;26.226;2024-02-15T12:13:04;99839.34;;;10.38;84.54
22653;BME280;11493;43.344;26.226;2024-02-15T12:16:00;99833.72;;;10.43;84.01
22653;BME280;11493;43.344;26.226;2024-02-15T12:18:46;99839.59;;;10.23;83.25
22653;BME280;11493;43.344;26.226;2024-02-15T12:21:25;99831.41;;;10.18;84.38
22653;BME280;11493;43.344;26.226;2024-02-15T12:23:53;99826.28;;;10.11;85.63
22653;BME280;11493;43.344;26.226;2024-02-15T12:26:21;99848.81;;;9.95;84.07
22653;BME280;11493;43.344;26.226;2024-02-15T12:28:51;99842.84;;;9.69;86.29
22653;BME280;11493;43.344;26.226;2024-02-15T12:31:24;99826.53;;;9.59;87.15
22653;BME280;11493;43.344;26.226;2024-02-15T12:34:04;99835.94;;;9.71;86.88
22653;BME280;11493;43.344;26.226;2024-02-15T12:36:34;99835.34;;;9.74;86.43
22653;BME280;11493;43.344;26.226;2024-02-15T12:39:06;99846.41;;;9.69;87.52
22653;BME280;11493;43.344;26.226;2024-02-15T12:41:48;99834.41;;;9.65;86.23
22653;BME280;11493;43.344;26.226;2024-02-15T12:44:19;99833.34;;;9.80;86.11
22653;BME280;11493;43.344;26.226;2024-02-15T12:46:54;99815.75;;;9.81;85.37
22653;BME280;11493;43.344;26.226;2024-02-15T12:52:33;99838.09;;;9.93;86.20
22653;BME280;11493;43.344;26.226;2024-02-15T12:55:24;99844.56;;;9.83;85.89
22653;BME280;11493;43.344;26.226;2024-02-15T12:57:54;99838.19;;;9.88;85.33
22653;BME280;11493;43.344;26.226;2024-02-15T13:00:26;99807.59;;;9.76;85.33
22653;BME280;11493;43.344;26.226;2024-02-15T13:03:00;99836.63;;;10.01;86.06
22653;BME280;11493;43.344;26.226;2024-02-15T13:05:31;99828.44;;;9.96;84.80
22653;BME280;11493;43.344;26.226;2024-02-15T13:07:58;99812.94;;;9.86;85.35
22653;BME280;11493;43.344;26.226;2024-02-15T13:10:30;99823.59;;;10.06;85.16
22653;BME280;11493;43.344;26.226;2024-02-15T13:13:01;99817.44;;;9.96;86.25
22653;BME280;11493;43.344;26.226;2024-02-15T13:15:28;99808.25;;;9.86;85.69
22653;BME280;11493;43.344;26.226;2024-02-15T13:18:01;99840.47;;;9.81;84.76
22653;BME280;11493;43.344;26.226;2024-02-15T13:20:32;99826.38;;;9.87;85.66
22653;BME280;11493;43.344;26.226;2024-02-15T13:23:02;99828.38;;;10.01;86.60
22653;BME280;11493;43.344;26.226;2024-02-15T13:25:36;99831.94;;;10.01;86.06
22653;BME280;11493;43.344;26.226;2024-02-15T13:28:04;99832.16;;;10.05;87.19
22653;BME280;11493;43.344;26.226;2024-02-15T13:30:32;99839.28;;;10.06;85.56
22653;BME280;11493;43.344;26.226;2024-02-15T13:32:59;99825.63;;;10.01;85.58